sensor_id;sensor_type;location;lat;lon;timestamp;P1;durP1;ratioP1;P2;durP2;ratioP2
71127;SDS011;59249;59.736;30.568;2022-12-10T00:02:44;21.55;;;7.90;;
71127;SDS011;59249;59.736;30.568;2022-12-10T00:05:19;23.63;;;8.07;;
71127;SDS011;59249;59.736;30.568;2022-12-10T00:07:57;25.60;;;8.57;;
71127;SDS011;59249;59.736;30.568;2022-12-10T00:10:42;21.30;;;7.17;;
71127;SDS011;59249;59.736;30.568;2022-12-10T00:13:22;21.48;;;7.18;;
71127;SDS011;59249;59.736;30.568;2022-12-10T00:15:53;18.65;;;5.97;;
71127;SDS011;59249;59.736;30.568;2022-12-10T00:18:23;19.95;;;6.82;;
71127;SDS011;59249;59.736;30.568;2022-12-10T00:20:55;19.33;;;6.78;;
71127;SDS011;59249;59.736;30.568;2022-12-10T00:23:26;20.03;;;6.93;;
71127;SDS011;59249;59.736;30.568;2022-12-10T00:26:01;21.15;;;7.43;;
71127;SDS011;59249;59.736;30.568;2022-12-10T00:28:34;19.00;;;6.82;;
71127;SDS011;59249;59.736;30.568;2022-12-10T00:31:22;15.52;;;6.38;;
71127;SDS011;59249;59.736;30.568;2022-12-10T00:34:04;16.55;;;6.07;;
71127;SDS011;59249;59.736;30.568;2022-12-10T00:36:37;13.20;;;5.17;;
71127;SDS011;59249;59.736;30.568;2022-12-10T00:39:12;13.85;;;4.97;;
71127;SDS011;59249;59.736;30.568;2022-12-10T00:41:44;14.93;;;4.93;;
71127;SDS011;59249;59.736;30.568;2022-12-10T00:44:20;15.50;;;5.57;;
71127;SDS011;59249;59.736;30.568;2022-12-10T00:47:00;14.65;;;4.82;;
71127;SDS011;59249;59.736;30.568;2022-12-10T00:49:29;11.23;;;4.40;;
71127;SDS011;59249;59.736;30.568;2022-12-10T00:52:00;11.55;;;3.42;;
71127;SDS011;59249;59.736;30.568;2022-12-10T00:54:31;12.80;;;4.43;;
71127;SDS011;59249;59.736;30.568;2022-12-10T00:57:03;16.48;;;6.10;;
71127;SDS011;59249;59.736;30.568;2022-12-10T00:59:32;13.70;;;5.38;;
71127;SDS011;59249;59.736;30.568;2022-12-10T01:02:03;15.07;;;5.20;;
71127;SDS011;59249;59.736;30.568;2022-12-10T01:04:37;12.68;;;4.85;;
71127;SDS011;59249;59.736;30.568;2022-12-10T01:07:08;13.88;;;5.50;;
71127;SDS011;59249;59.736;30.568;2022-12-10T01:09:39;16.73;;;6.00;;
71127;SDS011;59249;59.736;30.568;2022-12-10T01:12:08;16.27;;;5.18;;
71127;SDS011;59249;59.736;30.568;2022-12-10T01:14:37;15.40;;;5.20;;
71127;SDS011;59249;59.736;30.568;2022-12-10T01:17:08;16.40;;;6.57;;
71127;SDS011;59249;59.736;30.568;2022-12-10T01:19:37;13.90;;;5.38;;
71127;SDS011;59249;59.736;30.568;2022-12-10T01:22:06;15.35;;;4.82;;
71127;SDS011;59249;59.736;30.568;2022-12-10T01:24:35;12.65;;;5.07;;
71127;SDS011;59249;59.736;30.568;2022-12-10T01:27:06;18.47;;;6.43;;
71127;SDS011;59249;59.736;30.568;2022-12-10T01:29:35;15.98;;;6.18;;
71127;SDS011;59249;59.736;30.568;2022-12-10T01:32:03;14.65;;;5.25;;
71127;SDS011;59249;59.736;30.568;2022-12-10T01:34:32;17.55;;;6.00;;
71127;SDS011;59249;59.736;30.568;2022-12-10T01:37:01;11.68;;;5.45;;
71127;SDS011;59249;59.736;30.568;2022-12-10T01:39:31;16.77;;;5.23;;
71127;SDS011;59249;59.736;30.568;2022-12-10T01:42:00;18.58;;;6.65;;
71127;SDS011;59249;59.736;30.568;2022-12-10T01:47:35;16.67;;;5.60;;
71127;SDS011;59249;59.736;30.568;2022-12-10T01:50:04;13.23;;;4.63;;
71127;SDS011;59249;59.736;30.568;2022-12-10T01:52:36;15.37;;;4.93;;
71127;SDS011;59249;59.736;30.568;2022-12-10T01:55:08;14.20;;;5.22;;
71127;SDS011;59249;59.736;30.568;2022-12-10T01:58:07;15.52;;;5.88;;
71127;SDS011;59249;59.736;30.568;2022-12-10T02:00:38;14.43;;;5.13;;
71127;SDS011;59249;59.736;30.568;2022-12-10T02:03:24;15.43;;;4.90;;
71127;SDS011;59249;59.736;30.568;2022-12-10T02:06:06;13.97;;;5.60;;
71127;SDS011;59249;59.736;30.568;2022-12-10T02:08:52;13.00;;;5.15;;
71127;SDS011;59249;59.736;30.568;2022-12-10T02:11:31;14.60;;;5.32;;
71127;SDS011;59249;59.736;30.568;2022-12-10T02:14:16;13.35;;;4.40;;
71127;SDS011;59249;59.736;30.568;2022-12-10T02:16:54;14.70;;;4.85;;
71127;SDS011;59249;59.736;30.568;2022-12-10T02:19:34;13.37;;;4.83;;
71127;SDS011;59249;59.736;30.568;2022-12-10T02:22:31;15.23;;;5.55;;
71127;SDS011;59249;59.736;30.568;2022-12-10T02:25:06;15.88;;;4.63;;
71127;SDS011;59249;59.736;30.568;2022-12-10T02:27:42;16.67;;;5.80;;
71127;SDS011;59249;59.736;30.568;2022-12-10T02:30:22;11.38;;;4.15;;
71127;SDS011;59249;59.736;30.568;2022-12-10T02:32:51;15.83;;;5.47;;
71127;SDS011;59249;59.736;30.568;2022-12-10T02:35:23;14.75;;;5.10;;
71127;SDS011;59249;59.736;30.568;2022-12-10T02:37:59;13.85;;;4.70;;
71127;SDS011;59249;59.736;30.568;2022-12-10T02:40:35;14.23;;;4.70;;
71127;SDS011;59249;59.736;30.568;2022-12-10T02:43:08;12.32;;;4.30;;
71127;SDS011;59249;59.736;30.568;2022-12-10T02:45:42;13.13;;;4.60;;
71127;SDS011;59249;59.736;30.568;2022-12-10T02:48:13;13.45;;;4.80;;
71127;SDS011;59249;59.736;30.568;2022-12-10T02:50:48;14.45;;;4.85;;
71127;SDS011;59249;59.736;30.568;2022-12-10T02:53:21;14.77;;;4.63;;
71127;SDS011;59249;59.736;30.568;2022-12-10T02:55:57;11.48;;;4.47;;
71127;SDS011;59249;59.736;30.568;2022-12-10T02:58:46;14.10;;;4.97;;
71127;SDS011;59249;59.736;30.568;2022-12-10T03:01:33;12.07;;;4.68;;
71127;SDS011;59249;59.736;30.568;2022-12-10T03:04:22;13.75;;;4.65;;
71127;SDS011;59249;59.736;30.568;2022-12-10T03:07:11;12.75;;;4.43;;
71127;SDS011;59249;59.736;30.568;2022-12-10T03:09:55;15.93;;;5.25;;
71127;SDS011;59249;59.736;30.568;2022-12-10T03:12:34;13.27;;;5.03;;
71127;SDS011;59249;59.736;30.568;2022-12-10T03:15:13;13.10;;;5.10;;
71127;SDS011;59249;59.736;30.568;2022-12-10T03:17:58;12.65;;;4.78;;
71127;SDS011;59249;59.736;30.568;2022-12-10T03:20:42;11.45;;;4.25;;
71127;SDS011;59249;59.736;30.568;2022-12-10T03:23:14;12.35;;;4.07;;
71127;SDS011;59249;59.736;30.568;2022-12-10T03:25:46;9.07;;;3.87;;
71127;SDS011;59249;59.736;30.568;2022-12-10T03:28:18;12.70;;;4.38;;
71127;SDS011;59249;59.736;30.568;2022-12-10T03:30:51;12.68;;;4.53;;
71127;SDS011;59249;59.736;30.568;2022-12-10T03:33:40;13.05;;;4.93;;
71127;SDS011;59249;59.736;30.568;2022-12-10T03:36:35;12.80;;;3.90;;
71127;SDS011;59249;59.736;30.568;2022-12-10T03:39:16;7.57;;;2.63;;
71127;SDS011;59249;59.736;30.568;2022-12-10T03:41:49;10.57;;;4.13;;
71127;SDS011;59249;59.736;30.568;2022-12-10T03:44:26;11.18;;;4.10;;
71127;SDS011;59249;59.736;30.568;2022-12-10T03:46:57;8.25;;;3.22;;
71127;SDS011;59249;59.736;30.568;2022-12-10T03:49:33;14.30;;;5.47;;
71127;SDS011;59249;59.736;30.568;2022-12-10T03:52:03;11.77;;;4.03;;
71127;SDS011;59249;59.736;30.568;2022-12-10T03:54:39;7.53;;;3.13;;
71127;SDS011;59249;59.736;30.568;2022-12-10T03:57:24;9.00;;;3.22;;
71127;SDS011;59249;59.736;30.568;2022-12-10T03:59:54;10.30;;;3.80;;
71127;SDS011;59249;59.736;30.568;2022-12-10T04:02:25;8.10;;;2.65;;
71127;SDS011;59249;59.736;30.568;2022-12-10T04:05:15;8.90;;;2.83;;
71127;SDS011;59249;59.736;30.568;2022-12-10T04:07:47;10.77;;;4.30;;
71127;SDS011;59249;59.736;30.568;2022-12-10T04:10:16;10.38;;;4.28;;
71127;SDS011;59249;59.736;30.568;2022-12-10T04:12:46;7.63;;;3.22;;
71127;SDS011;59249;59.736;30.568;2022-12-10T04:15:37;10.02;;;4.07;;
71127;SDS011;59249;59.736;30.568;2022-12-10T04:18:43;8.57;;;3.30;;
71127;SDS011;59249;59.736;30.568;2022-12-10T04:21:29;8.32;;;3.47;;
71127;SDS011;59249;59.736;30.568;2022-12-10T04:24:23;6.85;;;2.38;;
71127;SDS011;59249;59.736;30.568;2022-12-10T04:27:16;10.07;;;3.38;;
71127;SDS011;59249;59.736;30.568;2022-12-10T04:29:57;9.82;;;3.72;;
71127;SDS011;59249;59.736;30.568;2022-12-10T04:32:33;5.77;;;1.90;;
71127;SDS011;59249;59.736;30.568;2022-12-10T04:35:03;7.35;;;2.65;;
71127;SDS011;59249;59.736;30.568;2022-12-10T04:37:35;7.93;;;2.75;;
71127;SDS011;59249;59.736;30.568;2022-12-10T04:40:16;8.73;;;3.53;;
71127;SDS011;59249;59.736;30.568;2022-12-10T04:43:05;12.07;;;4.50;;
71127;SDS011;59249;59.736;30.568;2022-12-10T04:45:35;12.80;;;5.53;;
71127;SDS011;59249;59.736;30.568;2022-12-10T04:48:16;12.63;;;5.15;;
71127;SDS011;59249;59.736;30.568;2022-12-10T04:50:53;6.22;;;1.95;;
71127;SDS011;59249;59.736;30.568;2022-12-10T04:53:26;9.00;;;3.35;;
71127;SDS011;59249;59.736;30.568;2022-12-10T04:56:04;8.00;;;2.90;;
71127;SDS011;59249;59.736;30.568;2022-12-10T04:58:35;11.70;;;4.77;;
71127;SDS011;59249;59.736;30.568;2022-12-10T05:01:07;8.65;;;3.10;;
71127;SDS011;59249;59.736;30.568;2022-12-10T05:03:52;9.27;;;2.97;;
71127;SDS011;59249;59.736;30.568;2022-12-10T05:06:25;10.50;;;3.83;;
71127;SDS011;59249;59.736;30.568;2022-12-10T05:08:56;7.35;;;2.72;;
71127;SDS011;59249;59.736;30.568;2022-12-10T05:11:27;7.23;;;2.67;;
71127;SDS011;59249;59.736;30.568;2022-12-10T05:14:02;7.10;;;2.85;;
71127;SDS011;59249;59.736;30.568;2022-12-10T05:16:35;8.88;;;3.45;;
71127;SDS011;59249;59.736;30.568;2022-12-10T05:19:14;8.00;;;3.22;;
71127;SDS011;59249;59.736;30.568;2022-12-10T05:21:46;9.18;;;2.80;;
71127;SDS011;59249;59.736;30.568;2022-12-10T05:24:46;8.70;;;2.97;;
71127;SDS011;59249;59.736;30.568;2022-12-10T05:27:21;7.63;;;2.33;;
71127;SDS011;59249;59.736;30.568;2022-12-10T05:29:50;7.38;;;2.40;;
71127;SDS011;59249;59.736;30.568;2022-12-10T05:32:22;9.02;;;3.00;;
71127;SDS011;59249;59.736;30.568;2022-12-10T05:34:50;10.50;;;4.03;;
71127;SDS011;59249;59.736;30.568;2022-12-10T05:37:21;13.57;;;4.87;;
71127;SDS011;59249;59.736;30.568;2022-12-10T05:40:06;9.57;;;3.58;;
71127;SDS011;59249;59.736;30.568;2022-12-10T05:42:38;11.05;;;4.10;;
71127;SDS011;59249;59.736;30.568;2022-12-10T05:45:07;8.40;;;3.00;;
71127;SDS011;59249;59.736;30.568;2022-12-10T05:47:52;11.98;;;4.50;;
71127;SDS011;59249;59.736;30.568;2022-12-10T05:50:21;9.67;;;3.90;;
71127;SDS011;59249;59.736;30.568;2022-12-10T05:52:53;10.45;;;3.60;;
71127;SDS011;59249;59.736;30.568;2022-12-10T05:55:24;10.40;;;3.90;;
71127;SDS011;59249;59.736;30.568;2022-12-10T05:57:55;11.13;;;4.25;;
71127;SDS011;59249;59.736;30.568;2022-12-10T06:00:31;9.32;;;3.15;;
71127;SDS011;59249;59.736;30.568;2022-12-10T06:03:03;12.80;;;3.70;;
71127;SDS011;59249;59.736;30.568;2022-12-10T06:05:35;12.82;;;3.33;;
71127;SDS011;59249;59.736;30.568;2022-12-10T06:08:05;9.35;;;3.55;;
71127;SDS011;59249;59.736;30.568;2022-12-10T06:10:37;11.15;;;3.88;;
71127;SDS011;59249;59.736;30.568;2022-12-10T06:13:16;11.82;;;3.95;;
71127;SDS011;59249;59.736;30.568;2022-12-10T06:15:55;12.80;;;4.87;;
71127;SDS011;59249;59.736;30.568;2022-12-10T06:18:28;12.50;;;4.05;;
71127;SDS011;59249;59.736;30.568;2022-12-10T06:21:02;12.43;;;4.43;;
71127;SDS011;59249;59.736;30.568;2022-12-10T06:23:31;12.77;;;5.00;;
71127;SDS011;59249;59.736;30.568;2022-12-10T06:26:04;17.85;;;5.95;;
71127;SDS011;59249;59.736;30.568;2022-12-10T06:28:36;22.10;;;7.83;;
71127;SDS011;59249;59.736;30.568;2022-12-10T06:31:05;10.88;;;4.72;;
71127;SDS011;59249;59.736;30.568;2022-12-10T06:33:39;11.65;;;3.85;;
71127;SDS011;59249;59.736;30.568;2022-12-10T06:36:10;10.82;;;4.35;;
71127;SDS011;59249;59.736;30.568;2022-12-10T06:38:41;10.35;;;4.07;;
71127;SDS011;59249;59.736;30.568;2022-12-10T06:41:13;12.00;;;4.90;;
71127;SDS011;59249;59.736;30.568;2022-12-10T06:43:44;13.23;;;5.15;;
71127;SDS011;59249;59.736;30.568;2022-12-10T06:46:14;11.27;;;3.80;;
71127;SDS011;59249;59.736;30.568;2022-12-10T06:48:45;13.50;;;4.57;;
71127;SDS011;59249;59.736;30.568;2022-12-10T06:51:15;17.23;;;7.18;;
71127;SDS011;59249;59.736;30.568;2022-12-10T06:53:47;14.87;;;4.33;;
71127;SDS011;59249;59.736;30.568;2022-12-10T06:56:18;12.95;;;3.83;;
71127;SDS011;59249;59.736;30.568;2022-12-10T06:58:49;9.40;;;2.83;;
71127;SDS011;59249;59.736;30.568;2022-12-10T07:01:20;7.20;;;2.28;;
71127;SDS011;59249;59.736;30.568;2022-12-10T07:03:54;8.82;;;3.70;;
71127;SDS011;59249;59.736;30.568;2022-12-10T07:06:24;9.23;;;3.20;;
71127;SDS011;59249;59.736;30.568;2022-12-10T07:08:55;12.50;;;4.65;;
71127;SDS011;59249;59.736;30.568;2022-12-10T07:11:27;10.30;;;3.50;;
71127;SDS011;59249;59.736;30.568;2022-12-10T07:13:57;7.55;;;2.80;;
71127;SDS011;59249;59.736;30.568;2022-12-10T07:16:28;8.05;;;2.38;;
71127;SDS011;59249;59.736;30.568;2022-12-10T07:19:00;7.43;;;2.10;;
71127;SDS011;59249;59.736;30.568;2022-12-10T07:21:31;9.13;;;2.63;;
71127;SDS011;59249;59.736;30.568;2022-12-10T07:24:04;8.07;;;2.60;;
71127;SDS011;59249;59.736;30.568;2022-12-10T07:26:41;12.68;;;4.07;;
71127;SDS011;59249;59.736;30.568;2022-12-10T07:29:14;8.75;;;2.60;;
71127;SDS011;59249;59.736;30.568;2022-12-10T07:32:08;8.17;;;2.87;;
71127;SDS011;59249;59.736;30.568;2022-12-10T07:34:37;8.82;;;2.20;;
71127;SDS011;59249;59.736;30.568;2022-12-10T07:37:09;7.93;;;2.65;;
71127;SDS011;59249;59.736;30.568;2022-12-10T07:39:45;9.25;;;2.47;;
71127;SDS011;59249;59.736;30.568;2022-12-10T07:42:17;9.82;;;3.83;;
71127;SDS011;59249;59.736;30.568;2022-12-10T07:44:47;12.07;;;3.80;;
71127;SDS011;59249;59.736;30.568;2022-12-10T07:47:17;7.50;;;2.08;;
71127;SDS011;59249;59.736;30.568;2022-12-10T07:49:46;5.88;;;1.30;;
71127;SDS011;59249;59.736;30.568;2022-12-10T07:52:15;7.38;;;2.08;;
71127;SDS011;59249;59.736;30.568;2022-12-10T07:54:44;6.75;;;2.35;;
71127;SDS011;59249;59.736;30.568;2022-12-10T07:57:12;7.23;;;2.67;;
71127;SDS011;59249;59.736;30.568;2022-12-10T07:59:43;9.82;;;2.42;;
71127;SDS011;59249;59.736;30.568;2022-12-10T08:02:19;9.18;;;2.55;;
71127;SDS011;59249;59.736;30.568;2022-12-10T08:04:47;6.82;;;2.30;;
71127;SDS011;59249;59.736;30.568;2022-12-10T08:07:19;8.63;;;2.70;;
71127;SDS011;59249;59.736;30.568;2022-12-10T08:09:48;6.07;;;1.80;;
71127;SDS011;59249;59.736;30.568;2022-12-10T08:12:17;7.50;;;2.90;;
71127;SDS011;59249;59.736;30.568;2022-12-10T08:14:47;10.07;;;2.88;;
71127;SDS011;59249;59.736;30.568;2022-12-10T08:17:22;6.78;;;1.95;;
71127;SDS011;59249;59.736;30.568;2022-12-10T08:19:51;6.60;;;2.58;;
71127;SDS011;59249;59.736;30.568;2022-12-10T08:22:21;6.53;;;2.03;;
71127;SDS011;59249;59.736;30.568;2022-12-10T08:24:50;7.20;;;1.92;;
71127;SDS011;59249;59.736;30.568;2022-12-10T08:27:18;7.40;;;2.67;;
71127;SDS011;59249;59.736;30.568;2022-12-10T08:29:49;8.18;;;2.50;;
71127;SDS011;59249;59.736;30.568;2022-12-10T08:32:20;10.48;;;2.70;;
71127;SDS011;59249;59.736;30.568;2022-12-10T08:34:49;8.87;;;3.10;;
71127;SDS011;59249;59.736;30.568;2022-12-10T08:37:18;14.48;;;5.32;;
71127;SDS011;59249;59.736;30.568;2022-12-10T08:39:47;8.15;;;3.25;;
71127;SDS011;59249;59.736;30.568;2022-12-10T08:42:16;13.75;;;4.28;;
71127;SDS011;59249;59.736;30.568;2022-12-10T08:44:45;10.82;;;3.38;;
71127;SDS011;59249;59.736;30.568;2022-12-10T08:47:16;7.73;;;2.50;;
71127;SDS011;59249;59.736;30.568;2022-12-10T08:49:45;10.23;;;3.42;;
71127;SDS011;59249;59.736;30.568;2022-12-10T08:52:14;7.22;;;2.30;;
71127;SDS011;59249;59.736;30.568;2022-12-10T08:54:43;6.95;;;2.55;;
71127;SDS011;59249;59.736;30.568;2022-12-10T08:57:11;9.65;;;3.35;;
71127;SDS011;59249;59.736;30.568;2022-12-10T08:59:41;10.27;;;2.37;;
71127;SDS011;59249;59.736;30.568;2022-12-10T09:02:12;9.23;;;2.50;;
71127;SDS011;59249;59.736;30.568;2022-12-10T09:04:43;5.93;;;1.95;;
71127;SDS011;59249;59.736;30.568;2022-12-10T09:07:13;8.35;;;2.22;;
71127;SDS011;59249;59.736;30.568;2022-12-10T09:09:41;7.85;;;2.22;;
71127;SDS011;59249;59.736;30.568;2022-12-10T09:12:10;5.90;;;2.30;;
71127;SDS011;59249;59.736;30.568;2022-12-10T09:14:39;6.78;;;2.47;;
71127;SDS011;59249;59.736;30.568;2022-12-10T09:17:08;8.02;;;2.97;;
71127;SDS011;59249;59.736;30.568;2022-12-10T09:19:38;8.02;;;2.70;;
71127;SDS011;59249;59.736;30.568;2022-12-10T09:22:08;7.20;;;2.30;;
71127;SDS011;59249;59.736;30.568;2022-12-10T09:24:37;6.83;;;1.97;;
71127;SDS011;59249;59.736;30.568;2022-12-10T09:27:06;8.82;;;2.78;;
71127;SDS011;59249;59.736;30.568;2022-12-10T09:29:34;7.28;;;2.78;;
71127;SDS011;59249;59.736;30.568;2022-12-10T09:32:03;7.78;;;3.03;;
71127;SDS011;59249;59.736;30.568;2022-12-10T09:34:32;7.00;;;2.08;;
71127;SDS011;59249;59.736;30.568;2022-12-10T09:37:01;8.27;;;2.97;;
71127;SDS011;59249;59.736;30.568;2022-12-10T09:39:31;6.72;;;2.47;;
71127;SDS011;59249;59.736;30.568;2022-12-10T09:42:04;6.50;;;2.30;;
71127;SDS011;59249;59.736;30.568;2022-12-10T09:44:51;6.70;;;2.95;;
71127;SDS011;59249;59.736;30.568;2022-12-10T09:47:31;27.25;;;12.00;;
71127;SDS011;59249;59.736;30.568;2022-12-10T09:50:10;8.03;;;3.33;;
71127;SDS011;59249;59.736;30.568;2022-12-10T09:52:47;8.55;;;2.72;;
71127;SDS011;59249;59.736;30.568;2022-12-10T09:55:19;7.07;;;2.80;;
71127;SDS011;59249;59.736;30.568;2022-12-10T09:57:58;12.40;;;4.15;;
71127;SDS011;59249;59.736;30.568;2022-12-10T10:00:32;9.48;;;3.83;;
71127;SDS011;59249;59.736;30.568;2022-12-10T10:03:04;7.43;;;2.10;;
71127;SDS011;59249;59.736;30.568;2022-12-10T10:05:34;7.47;;;1.85;;
71127;SDS011;59249;59.736;30.568;2022-12-10T10:08:11;7.90;;;2.75;;
71127;SDS011;59249;59.736;30.568;2022-12-10T10:10:51;7.05;;;1.92;;
71127;SDS011;59249;59.736;30.568;2022-12-10T10:13:23;8.50;;;3.42;;
71127;SDS011;59249;59.736;30.568;2022-12-10T10:16:21;9.03;;;3.10;;
71127;SDS011;59249;59.736;30.568;2022-12-10T10:18:55;8.30;;;3.33;;
71127;SDS011;59249;59.736;30.568;2022-12-10T10:21:28;9.07;;;2.92;;
71127;SDS011;59249;59.736;30.568;2022-12-10T10:24:02;8.57;;;2.80;;
71127;SDS011;59249;59.736;30.568;2022-12-10T10:26:39;8.75;;;3.40;;
71127;SDS011;59249;59.736;30.568;2022-12-10T10:29:08;8.10;;;2.63;;
71127;SDS011;59249;59.736;30.568;2022-12-10T10:31:41;7.32;;;2.60;;
71127;SDS011;59249;59.736;30.568;2022-12-10T10:34:13;8.05;;;2.45;;
71127;SDS011;59249;59.736;30.568;2022-12-10T10:36:46;5.80;;;1.88;;
71127;SDS011;59249;59.736;30.568;2022-12-10T10:39:20;4.65;;;1.40;;
71127;SDS011;59249;59.736;30.568;2022-12-10T10:41:57;7.33;;;2.30;;
71127;SDS011;59249;59.736;30.568;2022-12-10T10:44:33;5.95;;;2.15;;
71127;SDS011;59249;59.736;30.568;2022-12-10T10:47:23;6.80;;;1.75;;
71127;SDS011;59249;59.736;30.568;2022-12-10T10:50:00;6.70;;;2.17;;
71127;SDS011;59249;59.736;30.568;2022-12-10T10:52:35;7.75;;;2.38;;
71127;SDS011;59249;59.736;30.568;2022-12-10T10:55:08;8.33;;;3.20;;
71127;SDS011;59249;59.736;30.568;2022-12-10T10:58:03;7.05;;;2.40;;
71127;SDS011;59249;59.736;30.568;2022-12-10T11:00:32;6.50;;;1.95;;
71127;SDS011;59249;59.736;30.568;2022-12-10T11:03:02;5.70;;;2.00;;
71127;SDS011;59249;59.736;30.568;2022-12-10T11:05:35;7.18;;;3.00;;
71127;SDS011;59249;59.736;30.568;2022-12-10T11:08:05;6.93;;;2.43;;
71127;SDS011;59249;59.736;30.568;2022-12-10T11:10:46;7.65;;;2.25;;
71127;SDS011;59249;59.736;30.568;2022-12-10T11:13:24;6.55;;;2.63;;
71127;SDS011;59249;59.736;30.568;2022-12-10T11:15:55;8.23;;;2.15;;
71127;SDS011;59249;59.736;30.568;2022-12-10T11:18:31;6.95;;;2.70;;
71127;SDS011;59249;59.736;30.568;2022-12-10T11:21:04;6.47;;;2.37;;
71127;SDS011;59249;59.736;30.568;2022-12-10T11:23:45;7.47;;;2.80;;
71127;SDS011;59249;59.736;30.568;2022-12-10T11:29:20;7.30;;;2.90;;
71127;SDS011;59249;59.736;30.568;2022-12-10T11:32:09;7.68;;;2.72;;
71127;SDS011;59249;59.736;30.568;2022-12-10T11:35:07;7.67;;;2.67;;
71127;SDS011;59249;59.736;30.568;2022-12-10T11:37:49;9.20;;;3.22;;
71127;SDS011;59249;59.736;30.568;2022-12-10T11:40:40;9.73;;;4.20;;
71127;SDS011;59249;59.736;30.568;2022-12-10T11:43:35;7.95;;;3.22;;
71127;SDS011;59249;59.736;30.568;2022-12-10T11:46:19;8.95;;;2.90;;
71127;SDS011;59249;59.736;30.568;2022-12-10T11:49:12;10.43;;;4.40;;
71127;SDS011;59249;59.736;30.568;2022-12-10T11:51:53;9.73;;;3.83;;
71127;SDS011;59249;59.736;30.568;2022-12-10T11:54:48;8.13;;;3.03;;
71127;SDS011;59249;59.736;30.568;2022-12-10T11:57:37;11.85;;;4.25;;
71127;SDS011;59249;59.736;30.568;2022-12-10T12:00:18;12.50;;;4.68;;
71127;SDS011;59249;59.736;30.568;2022-12-10T12:06:11;14.35;;;4.75;;
71127;SDS011;59249;59.736;30.568;2022-12-10T12:09:04;11.27;;;4.20;;
71127;SDS011;59249;59.736;30.568;2022-12-10T12:11:50;10.18;;;3.60;;
71127;SDS011;59249;59.736;30.568;2022-12-10T12:14:40;6.82;;;2.53;;
71127;SDS011;59249;59.736;30.568;2022-12-10T12:17:18;12.40;;;5.00;;
71127;SDS011;59249;59.736;30.568;2022-12-10T12:19:55;9.68;;;4.32;;
71127;SDS011;59249;59.736;30.568;2022-12-10T12:22:29;9.05;;;4.10;;
71127;SDS011;59249;59.736;30.568;2022-12-10T12:25:05;11.50;;;4.95;;
71127;SDS011;59249;59.736;30.568;2022-12-10T12:27:49;10.00;;;4.22;;
71127;SDS011;59249;59.736;30.568;2022-12-10T12:30:24;5.43;;;2.23;;
71127;SDS011;59249;59.736;30.568;2022-12-10T12:32:54;9.32;;;3.47;;
71127;SDS011;59249;59.736;30.568;2022-12-10T12:35:36;9.10;;;3.78;;
71127;SDS011;59249;59.736;30.568;2022-12-10T12:38:19;8.07;;;3.20;;
71127;SDS011;59249;59.736;30.568;2022-12-10T12:40:59;10.88;;;4.40;;
71127;SDS011;59249;59.736;30.568;2022-12-10T12:45:42;12.47;;;4.77;;
71127;SDS011;59249;59.736;30.568;2022-12-10T12:47:32;9.98;;;3.92;;
71127;SDS011;59249;59.736;30.568;2022-12-10T12:50:11;10.38;;;4.65;;
71127;SDS011;59249;59.736;30.568;2022-12-10T12:52:56;10.05;;;4.05;;
71127;SDS011;59249;59.736;30.568;2022-12-10T12:55:29;9.65;;;4.25;;
71127;SDS011;59249;59.736;30.568;2022-12-10T12:58:12;9.83;;;3.57;;
71127;SDS011;59249;59.736;30.568;2022-12-10T13:01:05;10.18;;;3.83;;
71127;SDS011;59249;59.736;30.568;2022-12-10T13:03:47;8.63;;;4.18;;
71127;SDS011;59249;59.736;30.568;2022-12-10T13:06:20;10.38;;;4.25;;
71127;SDS011;59249;59.736;30.568;2022-12-10T13:08:59;11.68;;;4.70;;
71127;SDS011;59249;59.736;30.568;2022-12-10T13:15:02;9.13;;;3.67;;
71127;SDS011;59249;59.736;30.568;2022-12-10T13:18:02;7.38;;;2.53;;
71127;SDS011;59249;59.736;30.568;2022-12-10T13:20:51;9.43;;;4.53;;
71127;SDS011;59249;59.736;30.568;2022-12-10T13:24:08;10.10;;;4.40;;
71127;SDS011;59249;59.736;30.568;2022-12-10T13:26:41;10.38;;;4.68;;
71127;SDS011;59249;59.736;30.568;2022-12-10T13:29:43;9.67;;;3.93;;
71127;SDS011;59249;59.736;30.568;2022-12-10T13:32:22;8.10;;;3.10;;
71127;SDS011;59249;59.736;30.568;2022-12-10T13:35:22;10.85;;;3.70;;
71127;SDS011;59249;59.736;30.568;2022-12-10T13:38:02;21.77;;;9.80;;
71127;SDS011;59249;59.736;30.568;2022-12-10T13:40:50;10.32;;;4.60;;
71127;SDS011;59249;59.736;30.568;2022-12-10T13:43:53;11.07;;;4.40;;
71127;SDS011;59249;59.736;30.568;2022-12-10T13:46:59;6.30;;;2.47;;
71127;SDS011;59249;59.736;30.568;2022-12-10T13:49:54;11.25;;;3.63;;
71127;SDS011;59249;59.736;30.568;2022-12-10T13:52:29;7.22;;;3.20;;
71127;SDS011;59249;59.736;30.568;2022-12-10T13:55:17;10.18;;;3.90;;
71127;SDS011;59249;59.736;30.568;2022-12-10T13:58:01;7.90;;;2.60;;
71127;SDS011;59249;59.736;30.568;2022-12-10T14:00:56;9.27;;;2.92;;
71127;SDS011;59249;59.736;30.568;2022-12-10T14:06:38;8.52;;;3.17;;
71127;SDS011;59249;59.736;30.568;2022-12-10T14:09:11;7.82;;;3.17;;
71127;SDS011;59249;59.736;30.568;2022-12-10T14:11:47;9.83;;;2.80;;
71127;SDS011;59249;59.736;30.568;2022-12-10T14:14:29;7.55;;;2.33;;
71127;SDS011;59249;59.736;30.568;2022-12-10T14:17:02;8.75;;;2.58;;
71127;SDS011;59249;59.736;30.568;2022-12-10T14:19:34;6.68;;;2.45;;
71127;SDS011;59249;59.736;30.568;2022-12-10T14:22:04;11.90;;;4.25;;
71127;SDS011;59249;59.736;30.568;2022-12-10T14:24:35;10.57;;;3.37;;
71127;SDS011;59249;59.736;30.568;2022-12-10T14:27:11;9.90;;;3.60;;
71127;SDS011;59249;59.736;30.568;2022-12-10T14:29:44;9.30;;;2.83;;
71127;SDS011;59249;59.736;30.568;2022-12-10T14:32:14;8.23;;;2.63;;
71127;SDS011;59249;59.736;30.568;2022-12-10T14:34:48;14.43;;;4.80;;
71127;SDS011;59249;59.736;30.568;2022-12-10T14:37:23;6.23;;;2.77;;
71127;SDS011;59249;59.736;30.568;2022-12-10T14:40:03;9.10;;;3.58;;
71127;SDS011;59249;59.736;30.568;2022-12-10T14:42:37;8.80;;;3.15;;
71127;SDS011;59249;59.736;30.568;2022-12-10T14:45:10;8.68;;;2.47;;
71127;SDS011;59249;59.736;30.568;2022-12-10T14:47:43;7.78;;;3.28;;
71127;SDS011;59249;59.736;30.568;2022-12-10T14:50:15;9.83;;;3.50;;
71127;SDS011;59249;59.736;30.568;2022-12-10T14:52:45;8.35;;;2.95;;
71127;SDS011;59249;59.736;30.568;2022-12-10T14:55:20;6.75;;;2.60;;
71127;SDS011;59249;59.736;30.568;2022-12-10T14:57:53;5.70;;;1.38;;
71127;SDS011;59249;59.736;30.568;2022-12-10T15:00:27;13.93;;;5.43;;
71127;SDS011;59249;59.736;30.568;2022-12-10T15:02:57;7.90;;;2.53;;
71127;SDS011;59249;59.736;30.568;2022-12-10T15:05:36;8.65;;;3.28;;
71127;SDS011;59249;59.736;30.568;2022-12-10T15:08:06;9.13;;;4.50;;
71127;SDS011;59249;59.736;30.568;2022-12-10T15:10:43;9.82;;;3.03;;
71127;SDS011;59249;59.736;30.568;2022-12-10T15:13:21;11.00;;;4.22;;
71127;SDS011;59249;59.736;30.568;2022-12-10T15:15:58;10.10;;;3.77;;
71127;SDS011;59249;59.736;30.568;2022-12-10T15:18:30;8.27;;;2.72;;
71127;SDS011;59249;59.736;30.568;2022-12-10T15:21:05;6.47;;;2.80;;
71127;SDS011;59249;59.736;30.568;2022-12-10T15:23:43;8.20;;;3.10;;
71127;SDS011;59249;59.736;30.568;2022-12-10T15:26:18;9.80;;;3.38;;
71127;SDS011;59249;59.736;30.568;2022-12-10T15:28:51;8.03;;;2.40;;
71127;SDS011;59249;59.736;30.568;2022-12-10T15:32:03;9.55;;;3.00;;
71127;SDS011;59249;59.736;30.568;2022-12-10T15:34:45;7.50;;;3.10;;
71127;SDS011;59249;59.736;30.568;2022-12-10T15:37:20;10.20;;;4.03;;
71127;SDS011;59249;59.736;30.568;2022-12-10T15:39:52;8.15;;;2.83;;